createdAt,value
2022-08-05T00:02:07.992Z,95823.69
2022-08-05T00:04:38.395Z,95828.53
2022-08-05T00:07:21.767Z,95829.59
2022-08-05T00:09:53.534Z,95823.66
2022-08-05T00:12:22.048Z,95823.16
2022-08-05T00:14:48.481Z,95828.28
2022-08-05T00:17:18.650Z,95826.69
2022-08-05T00:20:02.057Z,95824.00
2022-08-05T00:22:29.719Z,95825.91
2022-08-05T00:24:57.496Z,95818.63
2022-08-05T00:27:28.383Z,95819.19
2022-08-05T00:30:03.529Z,95816.78
2022-08-05T00:32:29.938Z,95813.50
2022-08-05T00:35:06.203Z,95818.63
2022-08-05T00:37:51.322Z,95821.59
2022-08-05T00:40:28.168Z,95826.78
2022-08-05T00:42:57.968Z,95828.38
2022-08-05T00:45:37.861Z,95831.03
2022-08-05T00:48:07.912Z,95815.19
2022-08-05T00:50:34.318Z,95823.75
2022-08-05T00:53:02.131Z,95821.06
2022-08-05T00:55:42.281Z,95818.13
2022-08-05T00:58:14.519Z,95811.16
2022-08-05T01:00:42.067Z,95806.03
2022-08-05T01:03:10.530Z,95815.44
2022-08-05T01:05:49.292Z,95807.34
2022-08-05T01:08:40.188Z,95806.03
2022-08-05T01:11:13.764Z,95805.22
2022-08-05T01:13:58.967Z,95804.69
2022-08-05T01:16:40.902Z,95807.13
2022-08-05T01:19:16.039Z,95803.63
2022-08-05T01:22:01.515Z,95805.75
2022-08-05T01:24:50.642Z,95813.56
2022-08-05T01:27:26.510Z,95818.41
2022-08-05T01:29:58.172Z,95818.66
2022-08-05T01:32:29.314Z,95819.19
2022-08-05T01:35:01.279Z,95815.16
2022-08-05T01:37:49.103Z,95811.91
2022-08-05T01:40:18.147Z,95819.47
2022-08-05T01:42:45.888Z,95810.34
2022-08-05T01:45:16.488Z,95821.63
2022-08-05T01:47:47.842Z,95825.41
2022-08-05T01:50:28.620Z,95821.09
2022-08-05T01:53:05.339Z,95815.75
2022-08-05T01:55:36.477Z,95822.22
2022-08-05T01:58:15.083Z,95823.84
2022-08-05T02:00:47.040Z,95825.19
2022-08-05T02:03:34.183Z,95826.22
2022-08-05T02:06:03.566Z,95825.44
2022-08-05T02:08:58.639Z,95818.47
2022-08-05T02:11:33.671Z,95819.53
2022-08-05T02:14:05.235Z,95837.28
2022-08-05T02:16:41.775Z,95827.88
2022-08-05T02:19:34.381Z,95833.47
2022-08-05T02:22:25.513Z,95832.41
2022-08-05T02:25:02.184Z,95830.78
2022-08-05T02:27:57.670Z,95838.31
2022-08-05T02:30:19.570Z,95842.66
2022-08-05T02:32:51.048Z,95829.69
2022-08-05T02:35:27.681Z,95832.41
2022-08-05T02:37:56.759Z,95834.00
2022-08-05T02:40:29.766Z,95845.53
2022-08-05T02:42:56.966Z,95856.00
2022-08-05T02:45:26.597Z,95863.25
2022-08-05T02:48:06.670Z,95858.91
2022-08-05T02:50:43.790Z,95870.50
2022-08-05T02:53:18.746Z,95851.25
2022-08-05T02:55:54.984Z,95849.91
2022-08-05T02:58:29.998Z,95828.69
2022-08-05T03:00:58.677Z,95847.97
2022-08-05T03:03:28.150Z,95850.19
2022-08-05T03:06:55.042Z,95841.03
2022-08-05T03:08:52.235Z,95839.91
2022-08-05T03:11:56.453Z,95839.91
2022-08-05T03:14:08.666Z,95829.94
2022-08-05T03:16:40.024Z,95840.72
2022-08-05T03:19:12.867Z,95838.81
2022-08-05T03:21:49.611Z,95846.91
2022-08-05T03:24:27.529Z,95851.81
2022-08-05T03:26:56.703Z,95836.75
2022-08-05T03:29:23.930Z,95847.50
2022-08-05T03:31:57.173Z,95845.34
2022-08-05T03:34:28.831Z,95845.88
2022-08-05T03:36:55.353Z,95846.16
2022-08-05T03:39:27.029Z,95842.09
2022-08-05T03:41:56.317Z,95846.69
2022-08-05T03:44:23.408Z,95847.78
2022-08-05T03:46:49.908Z,95838.63
2022-08-05T03:49:16.724Z,95839.44
2022-08-05T03:52:36.559Z,95861.47
2022-08-05T03:55:52.078Z,95857.56
2022-08-05T03:57:45.887Z,95855.84
2022-08-05T04:00:16.395Z,95846.44
2022-08-05T04:02:58.092Z,95860.94
2022-08-05T04:05:33.629Z,95854.75
2022-08-05T04:08:05.637Z,95869.00
2022-08-05T04:10:42.837Z,95865.50
2022-08-05T04:13:09.365Z,95868.97
2022-08-05T04:15:36.826Z,95858.41
2022-08-05T04:18:06.777Z,95872.66
2022-08-05T04:20:34.812Z,95887.78
2022-08-05T04:23:01.338Z,95887.78
2022-08-05T04:25:57.425Z,95884.03
2022-08-05T04:28:14.620Z,95895.03
2022-08-05T04:30:41.497Z,95905.00
2022-08-05T04:33:09.586Z,95905.78
2022-08-05T04:36:10.634Z,95919.50
2022-08-05T04:38:22.842Z,95919.78
2022-08-05T04:41:07.311Z,95921.13
2022-08-05T04:43:36.279Z,95922.09
2022-08-05T04:46:04.468Z,95923.97
2022-08-05T04:48:31.816Z,95942.00
2022-08-05T04:51:03.674Z,95943.56
2022-08-05T04:53:38.878Z,95942.34
2022-08-05T04:56:33.364Z,95935.97
2022-08-05T04:58:54.211Z,95953.31
2022-08-05T05:01:33.688Z,95952.59
2022-08-05T05:04:07.560Z,95963.75
2022-08-05T05:06:36.068Z,95961.59
2022-08-05T05:09:16.837Z,95957.63
2022-08-05T05:11:53.123Z,95961.41
2022-08-05T05:14:31.741Z,95959.41
2022-08-05T05:17:03.320Z,95956.84
2022-08-05T05:19:36.765Z,95953.75
2022-08-05T05:22:24.411Z,95948.78
2022-08-05T05:24:57.842Z,95955.75
2022-08-05T05:27:44.415Z,95952.06
2022-08-05T05:30:15.465Z,95949.78
2022-08-05T05:32:55.904Z,95942.66
2022-08-05T05:35:22.918Z,95948.88
2022-08-05T05:38:00.140Z,95958.47
2022-08-05T05:40:29.586Z,95962.25
2022-08-05T05:42:57.059Z,95978.81
2022-08-05T05:45:24.750Z,95973.41
2022-08-05T05:48:06.094Z,95975.63
2022-08-05T05:50:43.835Z,95984.81
2022-08-05T05:53:22.111Z,95987.50
2022-08-05T05:55:51.744Z,95996.00
2022-08-05T05:58:32.105Z,95983.31
2022-08-05T06:01:13.011Z,96005.84
2022-08-05T06:04:00.700Z,95989.25
2022-08-05T06:06:30.848Z,96006.88
2022-08-05T06:08:58.094Z,96016.09
2022-08-05T06:11:24.625Z,96015.44
2022-08-05T06:13:54.118Z,96028.63
2022-08-05T06:16:29.496Z,96045.00
2022-08-05T06:19:00.064Z,96053.69
2022-08-05T06:21:37.183Z,96053.34
2022-08-05T06:24:11.279Z,96041.56
2022-08-05T06:26:51.006Z,96044.22
2022-08-05T06:29:25.389Z,96043.81
2022-08-05T06:32:25.013Z,96054.72
2022-08-05T06:34:53.634Z,96053.66
2022-08-05T06:37:57.342Z,96050.28
2022-08-05T06:40:11.072Z,96057.34
2022-08-05T06:42:39.701Z,96057.13
2022-08-05T06:45:08.370Z,96069.72
2022-08-05T06:48:36.777Z,96059.38
2022-08-05T06:50:22.581Z,96075.56
2022-08-05T06:52:58.625Z,96073.13
2022-08-05T06:55:30.481Z,96070.91
2022-08-05T06:58:30.085Z,96069.72
2022-08-05T07:00:50.075Z,96065.16
2022-08-05T07:03:16.721Z,96070.13
2022-08-05T07:05:43.395Z,96078.19
2022-08-05T07:08:10.849Z,96075.63
2022-08-05T07:10:38.003Z,96078.50
2022-08-05T07:13:56.823Z,96085.34
2022-08-05T07:17:58.539Z,96094.16
2022-08-05T07:19:16.069Z,96094.34
2022-08-05T07:22:02.603Z,96086.00
2022-08-05T07:24:29.898Z,96079.44
2022-08-05T07:26:56.964Z,96089.72
2022-08-05T07:29:25.456Z,96087.25
2022-08-05T07:32:12.807Z,96088.88
2022-08-05T07:34:42.469Z,96083.81
2022-08-05T07:37:11.739Z,96089.41
2022-08-05T07:40:04.441Z,96081.44
2022-08-05T07:42:33.806Z,96091.72
2022-08-05T07:45:03.579Z,96096.22
2022-08-05T07:47:42.249Z,96098.19
2022-08-05T07:50:10.062Z,96096.16
2022-08-05T07:52:40.847Z,96099.03
2022-08-05T07:55:15.870Z,96104.00
2022-08-05T07:58:02.358Z,96096.31
2022-08-05T08:00:30.140Z,96102.44
2022-08-05T08:03:15.307Z,96100.34
2022-08-05T08:05:49.828Z,96096.28
2022-08-05T08:08:17.064Z,96090.47
2022-08-05T08:10:48.915Z,96104.84
2022-08-05T08:13:22.133Z,96106.25
2022-08-05T08:16:35.144Z,96112.84
2022-08-05T08:18:42.439Z,96113.22
2022-08-05T08:21:17.735Z,96113.22
2022-08-05T08:24:03.164Z,96114.72
2022-08-05T08:26:31.227Z,96118.13
2022-08-05T08:29:02.413Z,96122.03
2022-08-05T08:31:47.596Z,96130.84
2022-08-05T08:34:15.218Z,96139.50
2022-08-05T08:36:48.827Z,96137.31
2022-08-05T08:39:19.854Z,96138.81
2022-08-05T08:41:51.180Z,96146.06
2022-08-05T08:45:19.917Z,96146.06
2022-08-05T08:47:21.780Z,96152.47
2022-08-05T08:50:05.774Z,96159.59
2022-08-05T08:53:01.677Z,96158.59
2022-08-05T08:56:04.280Z,96163.75
2022-08-05T08:58:37.104Z,96163.88
2022-08-05T09:01:15.981Z,96174.47
2022-08-05T09:03:45.760Z,96181.06
2022-08-05T09:06:15.812Z,96175.50
2022-08-05T09:08:45.303Z,96170.75
2022-08-05T09:11:13.980Z,96171.59
2022-08-05T09:14:10.133Z,96179.50
2022-08-05T09:16:28.631Z,96177.56
2022-08-05T09:18:55.873Z,96174.41
2022-08-05T09:22:17.946Z,96169.66
2022-08-05T09:24:15.419Z,96172.09
2022-08-05T09:26:43.745Z,96173.72
2022-08-05T09:29:11.102Z,96170.72
2022-08-05T09:32:41.455Z,96165.31
2022-08-05T09:34:53.625Z,96163.31
2022-08-05T09:38:17.763Z,96164.69
2022-08-05T09:40:10.129Z,96160.28
2022-08-05T09:42:41.020Z,96158.84
2022-08-05T09:46:05.302Z,96163.41
2022-08-05T09:47:56.761Z,96156.59
2022-08-05T09:50:38.585Z,96144.28
2022-08-05T09:53:23.176Z,96142.66
2022-08-05T09:56:04.786Z,96141.25
2022-08-05T09:58:39.190Z,96138.88
2022-08-05T10:01:14.833Z,96136.50
2022-08-05T10:04:00.633Z,96138.16
2022-08-05T10:06:28.038Z,96132.13
2022-08-05T10:08:55.749Z,96126.38
2022-08-05T10:11:23.306Z,96117.56
2022-08-05T10:13:49.862Z,96113.50
2022-08-05T10:16:28.874Z,96103.75
2022-08-05T10:18:56.800Z,96107.38
2022-08-05T10:21:24.131Z,96099.00
2022-08-05T10:23:59.220Z,96101.31
2022-08-05T10:26:31.684Z,96101.66
2022-08-05T10:29:00.694Z,96110.03
2022-08-05T10:33:02.202Z,96109.09
2022-08-05T10:34:14.398Z,96095.06
2022-08-05T10:36:44.672Z,96101.59
2022-08-05T10:39:24.847Z,96099.06
2022-08-05T10:42:33.349Z,96108.97
2022-08-05T10:45:01.437Z,96102.59
2022-08-05T10:47:37.149Z,96100.50
2022-08-05T10:50:31.690Z,96104.75
2022-08-05T10:53:01.767Z,96104.56
2022-08-05T10:55:38.543Z,96096.72
2022-08-05T10:58:17.992Z,96090.22
2022-08-05T11:00:48.556Z,96081.78
2022-08-05T11:03:24.858Z,96081.44
2022-08-05T11:06:15.651Z,96088.34
2022-08-05T11:09:31.950Z,96086.47
2022-08-05T11:12:26.929Z,96091.75
2022-08-05T11:16:00.825Z,96107.78
2022-08-05T11:18:34.017Z,96105.13
2022-08-05T11:21:02.629Z,96098.13
2022-08-05T11:23:33.615Z,96103.38
2022-08-05T11:26:17.043Z,96113.44
2022-08-05T11:28:56.099Z,96108.22
2022-08-05T11:31:58.705Z,96113.66
2022-08-05T11:34:37.027Z,96104.63
2022-08-05T11:38:14.307Z,96101.00
2022-08-05T11:40:00.535Z,96100.72
2022-08-05T11:42:33.092Z,96103.13
2022-08-05T11:45:27.055Z,96110.28
2022-08-05T11:47:55.066Z,96105.34
2022-08-05T11:50:22.927Z,96096.22
2022-08-05T11:52:52.073Z,96096.84
2022-08-05T11:55:20.951Z,96092.53
2022-08-05T11:58:10.087Z,96094.00
2022-08-05T12:00:38.362Z,96099.56
2022-08-05T12:03:29.105Z,96096.59
2022-08-05T12:06:05.885Z,96090.56
2022-08-05T12:08:50.009Z,96102.25
2022-08-05T12:11:23.311Z,96099.25
2022-08-05T12:14:04.024Z,96089.06
2022-08-05T12:16:38.571Z,96087.13
2022-08-05T12:19:08.290Z,96088.19
2022-08-05T12:21:39.231Z,96082.06
2022-08-05T12:24:14.208Z,96083.00
2022-08-05T12:26:47.310Z,96071.59
2022-08-05T12:29:22.742Z,96083.28
2022-08-05T12:32:02.018Z,96066.88
2022-08-05T12:34:37.260Z,96083.88
2022-08-05T12:37:16.956Z,96077.94
2022-08-05T12:39:44.932Z,96070.81
2022-08-05T12:42:20.375Z,96064.97
2022-08-05T12:44:47.748Z,96068.97
2022-08-05T12:47:26.561Z,96067.50
2022-08-05T12:50:04.071Z,96071.78
2022-08-05T12:52:39.468Z,96072.03
2022-08-05T12:55:22.036Z,96059.72
2022-08-05T12:58:52.741Z,96057.31
2022-08-05T13:02:01.239Z,96062.94
2022-08-05T13:03:32.327Z,96051.88
2022-08-05T13:05:59.035Z,96043.16
2022-08-05T13:08:32.217Z,96045.00
2022-08-05T13:11:00.675Z,96031.66
2022-08-05T13:14:06.217Z,96032.78
2022-08-05T13:16:16.756Z,96023.84
2022-08-05T13:18:55.271Z,96033.06
2022-08-05T13:21:28.474Z,96026.03
2022-08-05T13:24:06.219Z,96018.50
2022-08-05T13:26:35.711Z,96023.66
2022-08-05T13:29:02.081Z,96015.13
2022-08-05T13:32:03.780Z,96008.44
2022-08-05T13:34:25.095Z,96005.44
2022-08-05T13:36:55.216Z,96002.44
2022-08-05T13:40:12.758Z,96009.25
2022-08-05T13:42:14.658Z,95997.94
2022-08-05T13:44:45.686Z,96000.81
2022-08-05T13:47:34.557Z,95991.81
2022-08-05T13:50:01.280Z,95990.63
2022-08-05T13:52:31.624Z,95990.63
2022-08-05T13:55:07.346Z,95985.41
2022-08-05T13:57:48.571Z,95981.38
2022-08-05T14:00:17.556Z,95995.84
2022-08-05T14:02:43.961Z,95990.13
2022-08-05T14:05:11.996Z,95987.47
2022-08-05T14:07:59.994Z,95989.81
2022-08-05T14:10:31.290Z,95992.38
2022-08-05T14:12:59.560Z,95985.53
2022-08-05T14:16:07.117Z,95984.97
2022-08-05T14:18:18.355Z,95973.44
2022-08-05T14:20:54.414Z,95984.06
2022-08-05T14:23:25.456Z,95983.94
2022-08-05T14:25:54.534Z,95972.66
2022-08-05T14:28:27.103Z,95962.59
2022-08-05T14:30:54.988Z,95980.06
2022-08-05T14:33:22.612Z,95975.56
2022-08-05T14:35:52.067Z,95978.94
2022-08-05T14:38:33.275Z,95971.72
2022-08-05T14:41:07.520Z,95976.00
2022-08-05T14:44:01.594Z,95966.97
2022-08-05T14:46:28.261Z,95963.81
2022-08-05T14:48:55.849Z,95976.41
2022-08-05T14:51:23.916Z,95966.69
2022-08-05T14:54:27.464Z,95955.47
2022-08-05T14:56:38.169Z,95975.78
2022-08-05T14:59:11.360Z,95969.44
2022-08-05T15:01:48.072Z,95961.50
2022-08-05T15:04:15.899Z,95970.72
2022-08-05T15:06:49.373Z,95955.00
2022-08-05T15:09:16.299Z,95957.59
2022-08-05T15:12:03.947Z,95964.41
2022-08-05T15:14:34.719Z,95959.38
2022-08-05T15:17:09.668Z,95957.44
2022-08-05T15:19:40.905Z,95950.66
2022-08-05T15:22:16.569Z,95963.44
2022-08-05T15:24:44.679Z,95959.34
2022-08-05T15:27:11.927Z,95953.78
2022-08-05T15:29:42.200Z,95959.63
2022-08-05T15:32:08.687Z,95959.97
2022-08-05T15:34:35.413Z,95961.06
2022-08-05T15:37:06.323Z,95965.06
2022-08-05T15:40:58.700Z,95955.28
2022-08-05T15:42:54.365Z,95963.16
2022-08-05T15:45:07.793Z,95955.41
2022-08-05T15:47:37.100Z,95962.34
2022-08-05T15:50:07.254Z,95959.97
2022-08-05T15:52:53.227Z,95952.06
2022-08-05T15:55:24.603Z,95950.47
2022-08-05T15:57:51.740Z,95948.66
2022-08-05T16:00:26.159Z,95951.28
2022-08-05T16:03:06.045Z,95943.41
2022-08-05T16:05:32.899Z,95946.53
2022-08-05T16:07:59.267Z,95948.91
2022-08-05T16:10:26.860Z,95934.69
2022-08-05T16:12:55.949Z,95927.91
2022-08-05T16:15:23.014Z,95921.56
2022-08-05T16:17:57.754Z,95926.59
2022-08-05T16:20:25.831Z,95928.22
2022-08-05T16:22:54.406Z,95938.56
2022-08-05T16:25:20.813Z,95932.56
2022-08-05T16:28:05.371Z,95950.63
2022-08-05T16:30:32.871Z,95955.72
2022-08-05T16:32:59.841Z,95961.22
2022-08-05T16:35:28.401Z,95966.19
2022-08-05T16:38:16.768Z,95969.81
2022-08-05T16:40:47.740Z,95970.50
2022-08-05T16:43:19.176Z,95969.88
2022-08-05T16:46:07.051Z,95976.53
2022-08-05T16:48:35.339Z,95967.97
2022-08-05T16:51:03.841Z,95969.75
2022-08-05T16:54:02.742Z,95948.06
2022-08-05T16:56:23.396Z,95946.41
2022-08-05T16:58:49.902Z,95959.03
2022-08-05T17:01:16.452Z,95968.75
2022-08-05T17:03:45.942Z,95970.97
2022-08-05T17:06:12.915Z,95970.03
2022-08-05T17:08:52.300Z,95964.34
2022-08-05T17:11:20.850Z,95961.59
2022-08-05T17:13:50.851Z,95969.31
2022-08-05T17:16:33.054Z,95983.94
2022-08-05T17:19:00.464Z,95994.91
2022-08-05T17:21:36.306Z,95986.31
2022-08-05T17:24:19.410Z,95993.06
2022-08-05T17:26:56.553Z,96007.78
2022-08-05T17:29:33.059Z,96001.63
2022-08-05T17:32:06.623Z,96006.00
2022-08-05T17:34:35.054Z,96014.78
2022-08-05T17:37:01.942Z,96001.97
2022-08-05T17:39:34.382Z,96010.38
2022-08-05T17:42:18.236Z,96024.59
2022-08-05T17:44:50.375Z,96021.69
2022-08-05T17:47:22.404Z,96026.38
2022-08-05T17:49:59.844Z,96016.88
2022-08-05T17:52:31.836Z,96018.34
2022-08-05T17:54:58.656Z,96013.38
2022-08-05T17:57:25.036Z,96018.09
2022-08-05T18:00:03.822Z,96023.09
2022-08-05T18:02:34.238Z,96034.50
2022-08-05T18:05:06.198Z,96021.66
2022-08-05T18:07:41.288Z,96016.91
2022-08-05T18:10:10.363Z,96031.63
2022-08-05T18:12:37.973Z,96048.97
2022-08-05T18:15:05.105Z,96048.97
2022-08-05T18:17:59.194Z,96039.00
2022-08-05T18:20:19.561Z,96048.00
2022-08-05T18:22:57.506Z,96060.31
2022-08-05T18:25:25.195Z,96055.91
2022-08-05T18:27:59.017Z,96055.19
2022-08-05T18:30:29.744Z,96070.28
2022-08-05T18:33:00.388Z,96081.94
2022-08-05T18:36:01.155Z,96073.75
2022-08-05T18:38:19.362Z,96087.97
2022-08-05T18:41:55.402Z,96083.94
2022-08-05T18:43:42.700Z,96093.84
2022-08-05T18:46:15.129Z,96093.84
2022-08-05T18:48:42.130Z,96093.03
2022-08-05T18:52:04.882Z,96100.13
2022-08-05T18:54:16.444Z,96117.88
2022-08-05T18:56:50.978Z,96127.16
2022-08-05T18:59:43.000Z,96129.38
2022-08-05T19:02:26.859Z,96129.88
2022-08-05T19:05:01.408Z,96139.88
2022-08-05T19:07:45.112Z,96141.91
2022-08-05T19:10:13.263Z,96141.78
2022-08-05T19:12:40.142Z,96151.28
2022-08-05T19:15:25.054Z,96150.84
2022-08-05T19:18:08.262Z,96155.78
2022-08-05T19:20:36.836Z,96153.53
2022-08-05T19:23:03.345Z,96165.78
2022-08-05T19:25:38.170Z,96168.22
2022-08-05T19:28:08.763Z,96162.38
2022-08-05T19:30:35.503Z,96177.06
2022-08-05T19:33:04.356Z,96164.56
2022-08-05T19:35:57.472Z,96172.66
2022-08-05T19:38:26.490Z,96182.84
2022-08-05T19:40:53.818Z,96180.63
2022-08-05T19:44:04.228Z,96185.06
2022-08-05T19:46:06.801Z,96183.47
2022-08-05T19:48:53.146Z,96179.59
2022-08-05T19:52:04.524Z,96190.28
2022-08-05T19:54:26.813Z,96191.38
2022-08-05T19:56:55.391Z,96187.28
2022-08-05T19:59:56.657Z,96188.16
2022-08-05T20:02:08.804Z,96195.69
2022-08-05T20:04:37.364Z,96201.13
2022-08-05T20:07:03.889Z,96208.94
2022-08-05T20:09:53.815Z,96213.00
2022-08-05T20:12:22.702Z,96228.78
2022-08-05T20:14:52.469Z,96213.34
2022-08-05T20:17:23.458Z,96211.50
2022-08-05T20:19:56.780Z,96209.00
2022-08-05T20:22:25.031Z,96211.63
2022-08-05T20:24:53.789Z,96209.94
2022-08-05T20:27:21.012Z,96225.75
2022-08-05T20:29:57.953Z,96227.50
2022-08-05T20:32:27.404Z,96224.38
2022-08-05T20:34:54.527Z,96226.00
2022-08-05T20:38:04.999Z,96226.34
2022-08-05T20:40:08.368Z,96235.00
2022-08-05T20:42:34.773Z,96254.00
2022-08-05T20:45:02.032Z,96263.09
2022-08-05T20:47:31.832Z,96265.84
2022-08-05T20:49:58.853Z,96275.88
2022-08-05T20:52:25.662Z,96291.81
2022-08-05T20:54:59.357Z,96301.72
2022-08-05T20:57:42.213Z,96310.94
2022-08-05T21:00:41.248Z,96325.97
2022-08-05T21:03:04.479Z,96334.66
2022-08-05T21:05:48.229Z,96351.50
2022-08-05T21:08:28.226Z,96357.22
2022-08-05T21:11:09.976Z,96366.53
2022-08-05T21:13:55.682Z,96373.59
2022-08-05T21:16:29.702Z,96379.56
2022-08-05T21:19:01.440Z,96377.47
2022-08-05T21:21:39.487Z,96380.75
2022-08-05T21:24:12.851Z,96373.47
2022-08-05T21:26:40.149Z,96386.44
2022-08-05T21:29:08.071Z,96404.00
2022-08-05T21:31:41.115Z,96412.63
2022-08-05T21:34:08.547Z,96415.63
2022-08-05T21:36:37.425Z,96421.28
2022-08-05T21:39:03.891Z,96407.78
2022-08-05T21:41:34.340Z,96419.63
2022-08-05T21:44:04.162Z,96420.22
2022-08-05T21:46:34.483Z,96425.59
2022-08-05T21:49:02.385Z,96431.56
2022-08-05T21:52:22.155Z,96439.63
2022-08-05T21:54:27.934Z,96442.34
2022-08-05T21:57:29.190Z,96453.97
2022-08-05T22:00:02.087Z,96454.78
2022-08-05T22:02:30.664Z,96462.59
2022-08-05T22:04:58.798Z,96464.47
2022-08-05T22:07:40.218Z,96482.31
2022-08-05T22:10:12.428Z,96482.59
2022-08-05T22:12:40.196Z,96482.31
2022-08-05T22:15:16.905Z,96491.19
2022-08-05T22:18:03.574Z,96527.00
2022-08-05T22:20:30.403Z,96540.53
2022-08-05T22:23:21.498Z,96541.59
2022-08-05T22:26:09.865Z,96505.16
2022-08-05T22:28:37.327Z,96437.94
2022-08-05T22:31:05.518Z,96444.94
2022-08-05T22:33:57.107Z,96478.88
2022-08-05T22:36:19.312Z,96520.66
2022-08-05T22:38:50.951Z,96526.50
2022-08-05T22:42:05.123Z,96490.41
2022-08-05T22:44:08.023Z,96479.56
2022-08-05T22:46:40.047Z,96503.19
2022-08-05T22:49:23.235Z,96503.19
2022-08-05T22:52:06.643Z,96502.22
2022-08-05T22:54:35.531Z,96497.03
2022-08-05T22:57:03.540Z,96520.72
2022-08-05T22:59:45.914Z,96520.88
2022-08-05T23:02:16.942Z,96523.91
2022-08-05T23:04:51.206Z,96535.72
2022-08-05T23:07:18.313Z,96551.19
2022-08-05T23:09:57.531Z,96540.09
2022-08-05T23:12:32.825Z,96528.31
2022-08-05T23:15:03.162Z,96540.69
2022-08-05T23:17:34.542Z,96539.53
2022-08-05T23:20:10.414Z,96546.00
2022-08-05T23:22:44.034Z,96537.84
2022-08-05T23:25:17.631Z,96540.09
2022-08-05T23:28:01.445Z,96535.91
2022-08-05T23:30:29.096Z,96545.63
2022-08-05T23:32:57.737Z,96575.44
2022-08-05T23:35:28.596Z,96567.38
2022-08-05T23:38:00.991Z,96554.34
2022-08-05T23:40:27.879Z,96545.44
2022-08-05T23:42:54.288Z,96558.69
2022-08-05T23:45:20.853Z,96558.34
2022-08-05T23:47:53.912Z,96550.53
2022-08-05T23:50:26.525Z,96561.06
2022-08-05T23:52:54.992Z,96546.91
2022-08-05T23:55:22.335Z,96557.03
2022-08-05T23:57:52.853Z,96555.19
